Time;durP1;ratioP1;P1;durP2;ratioP2;P2;SDS_P1;SDS_P2;PMS_P1;PMS_P2;Temp;Humidity;BMP_temperature;BMP_pressure;BME280_temperature;BME280_humidity;BME280_pressure;Samples;Min_cycle;Max_cycle;Signal;HPM_P1;HPM_P2
2022/10/13 00:01:24;;;;;;;29.10;19.10;;;;;;;12.37;87.55;102013.02;107135;1273;60036;-79
2022/10/13 00:03:53;;;;;;;34.20;21.10;;;;;;;12.36;87.29;102013.20;107069;1274;73943;-80
2022/10/13 00:06:26;;;;;;;32.70;22.30;;;;;;;12.34;87.76;102020.86;107156;1265;62619;-79
2022/10/13 00:08:55;;;;;;;35.00;21.60;;;;;;;12.34;87.25;102017.17;106976;1271;61590;-76
2022/10/13 00:11:26;;;;;;;36.20;22.30;;;;;;;12.42;85.49;102018.27;107082;1270;64373;-76
2022/10/13 00:13:58;;;;;;;34.10;20.70;;;;;;;12.46;84.68;102018.06;107241;1265;62063;-76
2022/10/13 00:16:31;;;;;;;33.90;21.40;;;;;;;12.53;84.30;102019.88;107145;1273;60033;-76
2022/10/13 00:19:00;;;;;;;36.20;20.50;;;;;;;12.54;84.27;102016.71;106958;1273;62593;-76
2022/10/13 00:21:29;;;;;;;36.90;21.80;;;;;;;12.53;84.19;102018.35;106941;1276;58194;-75
2022/10/13 00:23:58;;;;;;;31.10;21.60;;;;;;;12.46;84.26;102014.38;107223;1270;60431;-75
2022/10/13 00:26:27;;;;;;;33.10;22.20;;;;;;;12.46;84.17;102015.40;107116;1272;74796;-77
2022/10/13 00:28:56;;;;;;;36.70;23.20;;;;;;;12.42;84.13;102012.52;107117;1275;73208;-75
2022/10/13 00:31:28;;;;;;;36.10;22.00;;;;;;;12.37;84.30;102013.49;107065;1274;70525;-76
2022/10/13 00:33:58;;;;;;;24.90;17.40;;;;;;;12.28;85.98;102015.81;107148;1274;74293;-76
2022/10/13 00:36:28;;;;;;;25.60;16.20;;;;;;;12.20;83.62;102012.06;107136;1263;58287;-75
2022/10/13 00:38:57;;;;;;;28.40;18.20;;;;;;;12.20;82.41;102011.72;107013;1277;61251;-75
2022/10/13 00:41:26;;;;;;;26.10;17.80;;;;;;;12.16;83.30;102011.77;107111;1274;75223;-75
2022/10/13 00:44:17;;;;;;;26.70;18.20;;;;;;;12.15;82.06;102015.19;107260;1276;62510;-74
2022/10/13 00:46:46;;;;;;;22.00;15.20;;;;;;;12.15;81.53;102012.51;107178;1277;59211;-75
2022/10/13 00:49:14;;;;;;;24.10;14.20;;;;;;;12.06;81.70;102013.23;107159;1275;73836;-74
2022/10/13 00:51:49;;;;;;;21.70;14.20;;;;;;;12.02;81.25;102011.02;107146;1277;57782;-75
2022/10/13 00:54:23;;;;;;;19.60;14.30;;;;;;;12.01;81.35;102013.18;107140;1268;58216;-74
2022/10/13 00:56:53;;;;;;;22.60;14.40;;;;;;;12.00;81.67;102009.94;107069;1271;63049;-74
2022/10/13 00:59:28;;;;;;;22.10;14.80;;;;;;;11.94;82.06;102008.33;107222;1275;71981;-74
2022/10/13 01:01:58;;;;;;;21.50;14.10;;;;;;;11.95;81.96;102008.44;107082;1270;69628;-74
2022/10/13 01:04:33;;;;;;;19.60;12.80;;;;;;;11.97;82.03;102010.98;106983;1270;73908;-75
2022/10/13 01:07:03;;;;;;;20.10;13.70;;;;;;;11.96;82.02;102004.08;107129;1274;61533;-78
2022/10/13 01:09:36;;;;;;;20.30;14.50;;;;;;;11.98;81.71;102011.07;107071;1273;59790;-76
2022/10/13 01:12:47;;;;;;;22.00;14.70;;;;;;;11.95;81.88;102013.00;107066;1265;62832;-76
2022/10/13 01:15:41;;;;;;;23.40;14.60;;;;;;;11.95;81.51;102012.83;107106;1268;72186;-76
2022/10/13 01:18:24;;;;;;;24.10;14.70;;;;;;;11.98;81.41;102010.23;106936;1273;59551;-76
2022/10/13 01:21:57;;;;;;;22.50;13.30;;;;;;;11.91;81.86;102009.02;107106;1265;63973;-78
2022/10/13 01:25:08;;;;;;;19.80;13.80;;;;;;;11.94;81.54;102011.14;106969;1277;57795;-77
2022/10/13 01:28:26;;;;;;;20.10;13.60;;;;;;;12.00;80.83;102010.61;106971;1272;60705;-77
2022/10/13 01:31:09;;;;;;;21.50;13.90;;;;;;;11.99;80.96;102011.77;106819;1273;64393;-77
2022/10/13 01:33:55;;;;;;;22.90;14.20;;;;;;;11.98;80.63;102009.18;107114;1268;71374;-81
2022/10/13 01:36:56;;;;;;;20.30;13.20;;;;;;;11.99;80.45;102009.48;107062;1273;60328;-80
2022/10/13 01:39:43;;;;;;;22.00;14.00;;;;;;;11.97;80.72;102010.46;106865;1270;63505;-76
2022/10/13 01:42:30;;;;;;;22.00;14.40;;;;;;;12.01;80.32;102004.97;106897;1271;60722;-75
2022/10/13 01:45:01;;;;;;;23.70;14.20;;;;;;;11.88;81.33;102005.69;106923;1270;60851;-75
2022/10/13 01:47:33;;;;;;;25.10;14.80;;;;;;;11.80;81.66;102002.17;106959;1268;74291;-75
2022/10/13 01:50:05;;;;;;;19.70;13.40;;;;;;;11.77;82.22;102005.10;107116;1263;71764;-76
2022/10/13 01:52:38;;;;;;;22.80;13.60;;;;;;;11.76;82.35;102003.59;107154;1269;71137;-75
2022/10/13 01:55:10;;;;;;;21.00;13.90;;;;;;;11.82;82.17;102003.94;107085;1270;74200;-75
2022/10/13 01:57:42;;;;;;;24.50;13.80;;;;;;;11.81;82.33;102004.35;107170;1277;61842;-75
2022/10/13 02:00:17;;;;;;;21.40;13.40;;;;;;;11.82;82.08;102001.15;107264;1268;61802;-75
2022/10/13 02:03:07;;;;;;;22.80;14.40;;;;;;;11.81;82.27;102005.08;107163;1277;64242;-75
2022/10/13 02:06:01;;;;;;;21.50;13.20;;;;;;;11.82;82.09;102001.86;107283;1268;72249;-76
2022/10/13 02:08:44;;;;;;;22.90;15.00;;;;;;;11.83;82.16;102002.48;107212;1274;69538;-78
2022/10/13 02:11:21;;;;;;;19.10;13.80;;;;;;;11.82;82.45;102006.22;107159;1277;63152;-78
2022/10/13 02:14:26;;;;;;;20.60;13.90;;;;;;;11.72;82.89;102012.55;107127;1272;61284;-76
2022/10/13 02:17:00;;;;;;;22.40;13.40;;;;;;;11.65;83.43;102014.15;107138;1269;57710;-76
2022/10/13 02:19:33;;;;;;;23.40;13.80;;;;;;;11.61;83.81;102014.17;107159;1269;72567;-76
2022/10/13 02:22:03;;;;;;;22.00;14.10;;;;;;;11.62;83.97;102011.33;107165;1268;63049;-76
2022/10/13 02:24:32;;;;;;;18.50;13.40;;;;;;;11.70;83.52;102011.77;106883;1280;73028;-76
2022/10/13 02:27:01;;;;;;;21.30;13.90;;;;;;;11.72;83.23;102015.70;107059;1273;63285;-77
2022/10/13 02:29:29;;;;;;;20.80;13.40;;;;;;;11.65;83.61;102014.98;107043;1277;58183;-77
2022/10/13 02:31:58;;;;;;;22.60;14.10;;;;;;;11.57;83.81;102018.42;107150;1262;61866;-77
2022/10/13 02:34:26;;;;;;;17.90;13.20;;;;;;;11.57;83.78;102017.92;107027;1273;74690;-77
2022/10/13 02:36:55;;;;;;;18.90;13.10;;;;;;;11.49;84.13;102017.50;107033;1278;63514;-77
2022/10/13 02:39:24;;;;;;;19.10;13.10;;;;;;;11.46;83.94;102017.67;107066;1267;70529;-77
2022/10/13 02:41:52;;;;;;;24.10;12.70;;;;;;;11.46;83.91;102018.35;107065;1267;63600;-78
2022/10/13 02:44:23;;;;;;;22.40;13.30;;;;;;;11.43;84.20;102017.10;107054;1276;57794;-75
2022/10/13 02:46:52;;;;;;;19.80;12.10;;;;;;;11.36;84.56;102015.74;107079;1273;58331;-78
2022/10/13 02:49:20;;;;;;;17.20;11.50;;;;;;;11.33;84.61;102013.30;107045;1267;74435;-79
2022/10/13 02:51:49;;;;;;;17.80;11.80;;;;;;;11.35;84.55;102011.98;107182;1262;60714;-78
2022/10/13 02:54:18;;;;;;;18.40;11.60;;;;;;;11.36;84.31;102007.73;107066;1271;70599;-78
2022/10/13 02:56:47;;;;;;;17.40;11.20;;;;;;;11.36;84.15;102011.41;107185;1270;73727;-79
2022/10/13 02:59:15;;;;;;;16.40;10.40;;;;;;;11.32;84.39;102013.70;107169;1267;58253;-77
2022/10/13 03:01:44;;;;;;;18.60;11.30;;;;;;;11.33;84.37;102015.08;107156;1277;58189;-77
2022/10/13 03:04:12;;;;;;;18.70;11.70;;;;;;;11.34;84.12;102017.95;107154;1272;73537;-78
2022/10/13 03:06:41;;;;;;;17.30;11.30;;;;;;;11.34;84.19;102024.20;107233;1261;61515;-78
2022/10/13 03:09:11;;;;;;;16.90;11.00;;;;;;;11.32;84.27;102022.39;107233;1264;71224;-77
2022/10/13 03:11:41;;;;;;;19.40;12.00;;;;;;;11.25;84.82;102021.59;107124;1265;73671;-80
2022/10/13 03:14:10;;;;;;;17.30;10.60;;;;;;;11.33;84.28;102023.59;107107;1273;57745;-81
2022/10/13 03:16:39;;;;;;;17.20;11.40;;;;;;;11.34;84.00;102027.72;107175;1274;58186;-82
2022/10/13 03:19:10;;;;;;;18.40;11.20;;;;;;;11.35;83.85;102031.66;107133;1265;63824;-80
2022/10/13 03:21:39;;;;;;;18.30;11.10;;;;;;;11.33;83.76;102029.89;107083;1271;71059;-80
2022/10/13 03:24:08;;;;;;;22.50;11.70;;;;;;;11.32;84.09;102033.23;107042;1272;60879;-79
2022/10/13 03:26:36;;;;;;;16.00;10.00;;;;;;;11.29;84.43;102032.55;106982;1270;63734;-79
2022/10/13 03:29:05;;;;;;;17.00;11.00;;;;;;;11.28;84.45;102030.50;106989;1273;58276;-78
2022/10/13 03:31:34;;;;;;;16.10;11.00;;;;;;;11.23;84.85;102027.46;107127;1270;61249;-81
2022/10/13 03:34:02;;;;;;;16.30;10.60;;;;;;;11.24;84.65;102024.97;107218;1270;74247;-79
2022/10/13 03:36:31;;;;;;;16.50;11.30;;;;;;;11.16;85.30;102027.13;107370;1268;60704;-79
2022/10/13 03:39:00;;;;;;;16.10;9.80;;;;;;;11.06;85.76;102027.64;107096;1270;70554;-77
2022/10/13 03:41:28;;;;;;;18.80;10.80;;;;;;;11.11;85.55;102028.64;107114;1279;62920;-79
2022/10/13 03:43:57;;;;;;;18.80;11.70;;;;;;;11.06;85.85;102025.55;107144;1274;62023;-81
2022/10/13 03:46:28;;;;;;;19.80;11.60;;;;;;;11.09;85.71;102027.52;107242;1268;60327;-80
2022/10/13 03:48:58;;;;;;;17.10;11.40;;;;;;;11.08;85.86;102025.13;107154;1267;64227;-80
2022/10/13 03:51:29;;;;;;;16.90;11.10;;;;;;;11.11;85.82;102025.66;107102;1271;60897;-81
2022/10/13 03:53:58;;;;;;;15.60;10.70;;;;;;;11.08;85.76;102026.17;107157;1273;61501;-81
2022/10/13 03:56:27;;;;;;;15.00;9.90;;;;;;;11.06;85.29;102021.07;107090;1274;74127;-82
2022/10/13 03:58:59;;;;;;;18.20;11.50;;;;;;;11.10;85.61;102027.78;107050;1273;58354;-76
2022/10/13 04:01:29;;;;;;;16.80;10.70;;;;;;;11.13;85.42;102025.38;107151;1272;60934;-81
2022/10/13 04:04:01;;;;;;;16.80;10.90;;;;;;;11.13;85.68;102021.36;106909;1272;63700;-87
2022/10/13 04:06:30;;;;;;;17.80;11.40;;;;;;;11.10;86.02;102019.23;107207;1268;72202;-86
2022/10/13 04:08:59;;;;;;;14.00;10.10;;;;;;;11.11;85.97;102016.22;107157;1272;60052;-79
2022/10/13 04:11:28;;;;;;;16.70;10.50;;;;;;;11.14;85.87;102016.05;107164;1272;73811;-81
2022/10/13 04:13:57;;;;;;;16.00;10.70;;;;;;;11.14;85.87;102012.09;107171;1270;58189;-84
2022/10/13 04:16:30;;;;;;;16.60;11.50;;;;;;;11.18;85.93;102012.42;107007;1271;58194;-90
2022/10/13 04:19:04;;;;;;;15.00;10.30;;;;;;;11.14;86.14;102015.40;107146;1277;63007;-77
2022/10/13 04:21:34;;;;;;;15.80;10.10;;;;;;;11.16;85.75;102014.24;107132;1272;71500;-80
2022/10/13 04:24:04;;;;;;;13.20;9.30;;;;;;;11.16;85.61;102011.27;107136;1274;68675;-81
2022/10/13 04:26:35;;;;;;;15.20;10.50;;;;;;;11.14;85.73;102009.61;107004;1271;63704;-81
2022/10/13 04:29:09;;;;;;;18.40;11.20;;;;;;;11.13;86.06;102011.60;107131;1272;60551;-82
2022/10/13 04:31:41;;;;;;;17.50;10.80;;;;;;;11.09;86.28;102019.83;107109;1267;58205;-83
2022/10/13 04:34:11;;;;;;;14.80;9.80;;;;;;;11.12;86.02;102016.35;107181;1274;63813;-79
2022/10/13 04:36:39;;;;;;;15.20;9.40;;;;;;;11.17;85.40;102021.47;107253;1268;61717;-83
2022/10/13 04:39:08;;;;;;;15.70;10.00;;;;;;;11.17;85.05;102022.04;107250;1272;60023;-83
2022/10/13 04:41:36;;;;;;;17.10;9.90;;;;;;;11.15;85.41;102025.63;107197;1268;73879;-83
2022/10/13 04:44:05;;;;;;;17.80;10.20;;;;;;;11.19;85.02;102025.77;107186;1277;57719;-82
2022/10/13 04:46:33;;;;;;;14.40;10.50;;;;;;;11.08;85.20;102016.55;107150;1277;60471;-83
2022/10/13 04:49:03;;;;;;;20.40;11.00;;;;;;;11.15;85.37;102022.45;107153;1266;63630;-86
2022/10/13 04:51:32;;;;;;;15.40;10.80;;;;;;;11.17;85.66;102018.70;107330;1265;60657;-85
2022/10/13 04:54:02;;;;;;;14.40;10.40;;;;;;;11.20;85.83;102019.95;107257;1263;69550;-82
2022/10/13 04:56:31;;;;;;;15.80;10.00;;;;;;;11.18;85.99;102019.88;107176;1268;64231;-83
2022/10/13 04:59:04;;;;;;;17.70;9.60;;;;;;;11.19;85.05;102019.67;107230;1277;61159;-86
2022/10/13 05:01:34;;;;;;;18.80;9.80;;;;;;;11.16;84.53;102017.20;107176;1274;58219;-84
2022/10/13 05:04:06;;;;;;;14.20;9.10;;;;;;;11.19;84.09;102016.15;107151;1268;63004;-82
2022/10/13 05:06:41;;;;;;;17.00;9.40;;;;;;;11.24;83.81;102018.71;107061;1267;72229;-86
2022/10/13 05:09:29;;;;;;;14.00;8.00;;;;;;;11.18;83.93;102020.23;107088;1273;59879;-82
2022/10/13 05:11:58;;;;;;;14.60;8.70;;;;;;;11.24;83.66;102021.83;107077;1274;72986;-85
2022/10/13 05:14:26;;;;;;;14.20;9.00;;;;;;;11.25;83.75;102019.69;107113;1273;60581;-84
2022/10/13 05:16:55;;;;;;;15.60;8.90;;;;;;;11.30;83.44;102021.15;107065;1274;58233;-81
2022/10/13 05:19:23;;;;;;;13.80;9.30;;;;;;;11.30;83.41;102022.35;106865;1265;373046;-83
2022/10/13 05:21:52;;;;;;;15.70;9.10;;;;;;;11.34;83.47;102022.49;107223;1268;60748;-80
2022/10/13 05:24:29;;;;;;;12.10;8.20;;;;;;;11.37;83.34;102025.98;107141;1268;70534;-83
2022/10/13 05:26:58;;;;;;;17.00;9.10;;;;;;;11.40;83.08;102027.54;107144;1273;63702;-83
2022/10/13 05:29:27;;;;;;;20.40;9.30;;;;;;;11.48;83.07;102038.33;107142;1275;58197;-83
2022/10/13 05:31:56;;;;;;;11.10;7.90;;;;;;;11.46;82.71;102036.13;107161;1273;59595;-87
2022/10/13 05:34:24;;;;;;;15.60;9.60;;;;;;;11.42;83.10;102040.70;107138;1266;74880;-82
2022/10/13 05:36:53;;;;;;;12.00;8.10;;;;;;;11.42;83.31;102044.90;107260;1264;62379;-83
2022/10/13 05:39:22;;;;;;;13.60;9.30;;;;;;;11.39;83.72;102046.65;107171;1269;70664;-82
2022/10/13 05:41:50;;;;;;;17.10;10.00;;;;;;;11.36;84.28;102050.42;107139;1273;63608;-82
2022/10/13 05:44:21;;;;;;;17.30;10.30;;;;;;;11.31;84.83;102050.53;107130;1268;62874;-83
2022/10/13 05:46:53;;;;;;;17.10;10.00;;;;;;;11.42;84.81;102051.37;107099;1274;58239;-84
2022/10/13 05:49:22;;;;;;;16.90;10.10;;;;;;;11.42;85.29;102049.45;107154;1268;63795;-82
2022/10/13 05:52:03;;;;;;;23.20;10.90;;;;;;;11.42;85.76;102052.61;107254;1264;72177;-84
2022/10/13 05:54:45;;;;;;;13.20;9.30;;;;;;;11.32;86.36;102053.33;107219;1268;60096;-84
2022/10/13 05:57:23;;;;;;;16.30;8.90;;;;;;;11.34;86.26;102053.17;107232;1273;73560;-84
2022/10/13 05:59:57;;;;;;;13.20;8.30;;;;;;;11.36;86.67;102052.91;107037;1270;63255;-83
2022/10/13 06:02:33;;;;;;;13.00;8.20;;;;;;;11.37;86.55;102053.38;107112;1268;57708;-83
2022/10/13 06:05:05;;;;;;;15.90;9.50;;;;;;;11.30;87.39;102059.88;107116;1272;63789;-85
2022/10/13 06:07:33;;;;;;;13.50;8.60;;;;;;;11.41;86.68;102058.55;107150;1271;61658;-82
2022/10/13 06:10:02;;;;;;;14.80;8.90;;;;;;;11.45;86.66;102059.94;107116;1273;60013;-82
2022/10/13 06:12:31;;;;;;;10.70;8.10;;;;;;;11.48;86.43;102055.95;107087;1277;73883;-80
2022/10/13 06:14:59;;;;;;;15.40;8.60;;;;;;;11.38;86.88;102051.23;107072;1272;62550;-84
2022/10/13 06:17:37;;;;;;;13.20;8.40;;;;;;;11.50;86.54;102057.40;107092;1270;60620;-85
2022/10/13 06:20:07;;;;;;;;;;;;;;;11.48;86.79;102060.77;107204;1266;74815;-82
2022/10/13 06:22:36;;;;;;;13.60;8.90;;;;;;;11.47;87.24;102062.79;107053;1269;60743;-83
2022/10/13 06:25:06;;;;;;;13.10;8.40;;;;;;;11.47;87.37;102060.71;106954;1274;68035;-85
2022/10/13 06:27:35;;;;;;;15.60;8.80;;;;;;;11.55;86.85;102059.88;106975;1274;73987;-85
2022/10/13 06:30:04;;;;;;;13.00;8.90;;;;;;;11.66;86.44;102058.95;106997;1274;57811;-83
2022/10/13 06:32:33;;;;;;;18.20;9.60;;;;;;;11.67;86.29;102057.30;106978;1274;61398;-83
2022/10/13 06:35:02;;;;;;;17.30;9.30;;;;;;;11.77;85.81;102059.55;107036;1273;74936;-82
2022/10/13 06:37:30;;;;;;;12.60;8.70;;;;;;;11.82;85.19;102059.11;107067;1268;72550;-85
2022/10/13 06:39:59;;;;;;;14.50;8.20;;;;;;;11.82;84.96;102061.04;106937;1273;59597;-83
2022/10/13 06:42:30;;;;;;;12.80;8.10;;;;;;;11.81;84.85;102061.61;107007;1269;64085;-82
2022/10/13 06:45:09;;;;;;;12.20;8.00;;;;;;;11.81;84.47;102066.34;107023;1280;63587;-83
2022/10/13 06:47:40;;;;;;;13.70;8.50;;;;;;;11.74;84.62;102063.23;107042;1271;58241;-80
2022/10/13 06:50:09;;;;;;;13.50;9.20;;;;;;;11.78;83.91;102059.64;107035;1273;72864;-82
2022/10/13 06:52:38;;;;;;;14.60;8.70;;;;;;;11.87;83.46;102057.96;107140;1270;61668;-81
2022/10/13 06:55:07;;;;;;;17.80;9.60;;;;;;;11.77;83.99;102064.07;107043;1280;70524;-82
2022/10/13 06:57:37;;;;;;;20.90;9.30;;;;;;;11.84;83.57;102068.59;107018;1276;73186;-80
2022/10/13 07:00:07;;;;;;;15.00;9.10;;;;;;;11.81;83.87;102070.33;107023;1270;60756;-80
2022/10/13 07:02:37;;;;;;;11.10;8.40;;;;;;;11.85;84.37;102071.17;107012;1270;59430;-80
2022/10/13 07:05:06;;;;;;;14.10;9.20;;;;;;;11.91;84.29;102073.44;106996;1270;63822;-83
2022/10/13 07:07:35;;;;;;;14.60;9.30;;;;;;;11.85;84.74;102069.75;107012;1274;60979;-81
2022/10/13 07:10:04;;;;;;;11.90;8.00;;;;;;;11.81;85.35;102069.30;106931;1274;70574;-81
2022/10/13 07:12:33;;;;;;;14.00;9.20;;;;;;;11.89;85.15;102070.77;106940;1270;62845;-83
2022/10/13 07:15:02;;;;;;;14.90;8.50;;;;;;;11.80;85.55;102066.39;106928;1280;60376;-84
2022/10/13 07:17:31;;;;;;;13.80;8.60;;;;;;;11.83;85.55;102069.53;106874;1280;61587;-85
2022/10/13 07:20:01;;;;;;;14.10;8.10;;;;;;;11.88;85.64;102069.27;106914;1280;64895;-84
2022/10/13 07:22:43;;;;;;;13.30;8.70;;;;;;;11.92;85.40;102070.08;107027;1270;71863;-85
2022/10/13 07:25:12;;;;;;;12.80;8.00;;;;;;;12.01;85.37;102073.93;106930;1280;69572;-84
2022/10/13 07:27:40;;;;;;;12.70;8.00;;;;;;;12.05;85.09;102076.14;106952;1270;63019;-84
2022/10/13 07:30:11;;;;;;;14.60;8.10;;;;;;;12.05;84.80;102076.52;107043;1280;58503;-77
2022/10/13 07:32:41;;;;;;;13.60;8.50;;;;;;;12.01;85.16;102074.09;106980;1276;58202;-78
2022/10/13 07:35:10;;;;;;;13.70;8.40;;;;;;;11.87;86.24;102075.05;106978;1276;74632;-78
2022/10/13 07:37:39;;;;;;;14.90;8.60;;;;;;;11.96;86.03;102077.38;107094;1274;60884;-76
2022/10/13 07:40:08;;;;;;;12.30;9.00;;;;;;;11.99;85.75;102078.94;107071;1274;69787;-79
2022/10/13 07:42:49;;;;;;;18.50;11.00;;;;;;;12.01;85.44;102082.30;106991;1273;62253;-86
2022/10/13 07:45:18;;;;;;;14.40;7.70;;;;;;;11.97;85.76;102083.08;107069;1269;60682;-85
2022/10/13 07:47:46;;;;;;;10.60;7.40;;;;;;;11.92;86.03;102082.97;107048;1276;57738;-84
2022/10/13 07:50:15;;;;;;;13.70;9.30;;;;;;;11.91;86.18;102082.38;106974;1270;63122;-85
2022/10/13 07:52:43;;;;;;;17.10;8.80;;;;;;;12.02;85.72;102079.81;107107;1271;72151;-83
2022/10/13 07:55:12;;;;;;;13.70;8.90;;;;;;;12.14;85.23;102078.29;107020;1277;59634;-83
2022/10/13 07:57:41;;;;;;;16.60;10.60;;;;;;;12.21;84.27;102075.40;107124;1276;63391;-85
2022/10/13 08:00:10;;;;;;;15.30;9.50;;;;;;;12.08;85.83;102073.91;107129;1270;60702;-84
2022/10/13 08:02:42;;;;;;;14.10;9.70;;;;;;;12.06;85.90;102076.80;107127;1273;58175;-83
2022/10/13 08:05:10;;;;;;;17.80;9.60;;;;;;;12.10;85.43;102072.92;107143;1269;73464;-85
2022/10/13 08:07:39;;;;;;;16.40;10.80;;;;;;;12.14;85.39;102069.52;107219;1274;61987;-84
2022/10/13 08:10:08;;;;;;;19.90;10.70;;;;;;;12.15;85.60;102067.92;107145;1280;70520;-84
2022/10/13 08:12:37;;;;;;;18.40;11.20;;;;;;;12.11;85.77;102066.75;107132;1270;73756;-84
2022/10/13 08:15:08;;;;;;;18.40;11.40;;;;;;;12.04;85.96;102066.45;107140;1267;58433;-85
2022/10/13 08:17:36;;;;;;;16.80;12.20;;;;;;;12.00;86.34;102065.24;107137;1270;61304;-88
2022/10/13 08:20:06;;;;;;;18.00;12.30;;;;;;;11.99;86.40;102067.59;107182;1270;63665;-85
2022/10/13 08:22:35;;;;;;;22.30;14.40;;;;;;;11.99;86.55;102070.56;107182;1271;61529;-85
2022/10/13 08:25:06;;;;;;;24.20;16.50;;;;;;;12.04;86.09;102066.45;107116;1274;69557;-84
2022/10/13 08:27:37;;;;;;;23.20;15.80;;;;;;;11.99;86.13;102069.84;107059;1276;73414;-85
2022/10/13 08:30:18;;;;;;;;;;;;;;;11.99;86.35;102071.05;107076;1274;63060;-84
2022/10/13 08:32:47;;;;;;;19.90;13.60;;;;;;;11.90;86.39;102071.42;107189;1265;57767;-86
2022/10/13 08:35:16;;;;;;;19.30;13.20;;;;;;;11.91;86.26;102069.59;107123;1270;73965;-84
2022/10/13 08:37:44;;;;;;;18.80;12.00;;;;;;;12.00;86.02;102065.78;107182;1271;71833;-87
2022/10/13 08:40:21;;;;;;;17.80;11.40;;;;;;;12.04;85.67;102063.45;107130;1274;59272;-83
2022/10/13 08:42:50;;;;;;;20.80;11.30;;;;;;;12.05;85.59;102065.17;107139;1274;63536;-82
2022/10/13 08:45:29;;;;;;;16.40;11.40;;;;;;;12.05;85.41;102061.28;107095;1277;58242;-86
2022/10/13 08:48:26;;;;;;;17.60;10.70;;;;;;;12.12;85.05;102063.19;107058;1271;58238;-83
2022/10/13 08:51:02;;;;;;;18.40;11.10;;;;;;;12.14;85.10;102062.55;107092;1275;63820;-84
2022/10/13 08:53:36;;;;;;;17.50;10.50;;;;;;;12.14;85.01;102062.02;107166;1266;62370;-86
2022/10/13 08:56:41;;;;;;;15.10;10.20;;;;;;;12.17;84.32;102057.81;107051;1269;69659;-86
2022/10/13 08:59:13;;;;;;;15.30;10.30;;;;;;;12.17;84.16;102060.27;107070;1274;73456;-85
2022/10/13 09:01:47;;;;;;;19.00;10.10;;;;;;;12.25;83.80;102064.17;106958;1271;57747;-85
2022/10/13 09:04:35;;;;;;;18.40;10.70;;;;;;;12.26;83.80;102066.05;106988;1273;58239;-86
2022/10/13 09:07:18;;;;;;;19.40;10.30;;;;;;;12.27;83.67;102064.41;107056;1273;73560;-86
2022/10/13 09:09:53;;;;;;;16.40;10.20;;;;;;;12.27;83.42;102066.34;107200;1271;60870;-85
2022/10/13 09:12:25;;;;;;;17.30;10.10;;;;;;;12.26;83.31;102067.64;107138;1274;59262;-83
2022/10/13 09:15:10;;;;;;;15.50;10.80;;;;;;;12.26;83.13;102067.59;106981;1272;73265;-84
2022/10/13 09:17:40;;;;;;;18.00;10.40;;;;;;;12.28;82.73;102067.30;106927;1273;57744;-84
2022/10/13 09:20:23;;;;;;;19.00;11.20;;;;;;;12.23;82.99;102063.95;107104;1274;58456;-87
2022/10/13 09:23:06;;;;;;;16.90;10.80;;;;;;;12.38;81.89;102067.63;107114;1274;74393;-87
2022/10/13 09:25:44;;;;;;;16.30;10.80;;;;;;;12.34;82.06;102071.33;107187;1276;72227;-90
2022/10/13 09:28:26;;;;;;;20.00;12.50;;;;;;;12.53;81.43;102076.35;107103;1270;70485;-86
2022/10/13 09:31:25;;;;;;;18.20;11.00;;;;;;;12.58;80.46;102076.41;107143;1279;73792;-84
2022/10/13 09:34:17;;;;;;;17.10;11.50;;;;;;;12.62;80.18;102073.55;107220;1274;59120;-85
2022/10/13 09:37:05;;;;;;;16.40;10.50;;;;;;;12.67;79.64;102074.10;107219;1270;60664;-87
2022/10/13 09:39:34;;;;;;;15.30;9.60;;;;;;;12.76;79.14;102067.79;106948;1274;73577;-80
2022/10/13 09:42:25;;;;;;;17.50;10.00;;;;;;;12.98;78.23;102067.20;107209;1265;61518;-78
2022/10/13 09:45:14;;;;;;;15.10;10.00;;;;;;;13.15;76.93;102064.38;107194;1270;70197;-80
2022/10/13 09:48:04;;;;;;;38.30;13.00;;;;;;;13.12;76.70;102061.21;107204;1270;73807;-80
2022/10/13 09:50:34;;;;;;;22.00;10.50;;;;;;;13.09;76.82;102060.69;107100;1274;58307;-80
2022/10/13 09:53:34;;;;;;;16.40;9.90;;;;;;;13.16;75.97;102058.34;107118;1274;60505;-78
2022/10/13 09:56:18;;;;;;;22.20;10.00;;;;;;;13.47;74.96;102062.55;107147;1274;74856;-82
2022/10/13 09:59:11;;;;;;;16.50;9.70;;;;;;;13.45;74.64;102062.02;107262;1265;71272;-80
2022/10/13 10:01:45;;;;;;;16.50;10.40;;;;;;;13.54;74.32;102058.28;107055;1274;70473;-81
2022/10/13 10:04:19;;;;;;;20.30;10.70;;;;;;;13.65;74.06;102055.51;107109;1277;63056;-84
2022/10/13 10:06:48;;;;;;;23.10;11.00;;;;;;;13.60;74.66;102053.02;106987;1274;61305;-79
2022/10/13 10:09:32;;;;;;;12.80;9.50;;;;;;;13.65;74.46;102050.41;106916;1269;58384;-80
2022/10/13 10:12:02;;;;;;;21.90;10.00;;;;;;;13.70;73.38;102047.98;106899;1274;74394;-78
2022/10/13 10:14:35;;;;;;;12.80;9.50;;;;;;;13.74;73.06;102044.74;106975;1270;61387;-81
2022/10/13 10:17:04;;;;;;;;;;;;;;;13.77;73.00;102041.09;106892;1274;59858;-79
2022/10/13 10:19:44;;;;;;;14.10;9.40;;;;;;;13.90;72.90;102041.98;106972;1270;64464;-81
2022/10/13 10:22:37;;;;;;;21.40;13.40;;;;;;;13.97;72.54;102035.00;106936;1270;62136;-81
2022/10/13 10:25:40;;;;;;;18.70;12.40;;;;;;;13.93;72.92;102033.70;106900;1274;58246;-81
2022/10/13 10:28:30;;;;;;;15.20;10.00;;;;;;;14.10;72.63;102029.25;106993;1273;64199;-78
2022/10/13 10:31:35;;;;;;;16.90;10.40;;;;;;;14.10;72.86;102030.16;107111;1264;61630;-79
2022/10/13 10:34:34;;;;;;;15.20;9.90;;;;;;;13.89;73.05;102031.52;107096;1273;69711;-80
2022/10/13 10:37:24;;;;;;;15.20;9.60;;;;;;;13.68;74.09;102032.54;107090;1279;63481;-81
2022/10/13 10:40:02;;;;;;;16.60;9.70;;;;;;;13.58;74.18;102031.95;107076;1268;62232;-81
2022/10/13 10:42:51;;;;;;;18.60;11.20;;;;;;;13.55;74.50;102022.20;107105;1274;58166;-80
2022/10/13 10:45:25;;;;;;;20.30;13.30;;;;;;;13.57;74.52;102018.70;107212;1265;75063;-83
2022/10/13 10:48:13;;;;;;;33.40;16.60;;;;;;;13.68;73.77;102017.13;107245;1268;61533;-80
2022/10/13 10:50:42;;;;;;;13.90;9.50;;;;;;;13.71;73.41;102015.33;107140;1273;70518;-80
2022/10/13 10:53:44;;;;;;;15.40;10.60;;;;;;;13.86;72.78;102012.80;107017;1268;74263;-77
2022/10/13 10:56:30;;;;;;;16.30;10.60;;;;;;;13.90;72.64;102007.83;107139;1274;61281;-79
2022/10/13 10:59:35;;;;;;;14.60;10.10;;;;;;;13.61;73.80;102008.84;107122;1274;60714;-78
2022/10/13 11:02:07;;;;;;;13.50;9.70;;;;;;;13.58;73.71;102010.43;107116;1274;72077;-78
2022/10/13 11:04:48;;;;;;;13.10;10.10;;;;;;;13.66;73.49;102011.46;107211;1268;71375;-82
2022/10/13 11:07:22;;;;;;;13.90;10.20;;;;;;;13.54;74.38;102013.30;107245;1268;61140;-81
2022/10/13 11:10:13;;;;;;;17.00;11.00;;;;;;;13.44;74.72;102010.29;107123;1271;62548;-80
2022/10/13 11:12:50;;;;;;;15.20;10.20;;;;;;;13.45;74.94;102006.20;107107;1278;60632;-82
2022/10/13 11:15:29;;;;;;;18.70;11.10;;;;;;;13.46;75.04;102004.73;107275;1275;57736;-82
2022/10/13 11:17:58;;;;;;;17.10;10.20;;;;;;;13.36;75.57;102000.95;107182;1275;63120;-81
2022/10/13 11:20:58;;;;;;;18.30;11.60;;;;;;;13.43;75.22;101998.60;107284;1268;71396;-80
2022/10/13 11:23:32;;;;;;;15.20;11.00;;;;;;;13.39;75.55;101997.48;107161;1270;62052;-81
2022/10/13 11:26:42;;;;;;;18.70;11.00;;;;;;;13.45;75.70;101996.39;107131;1271;63817;-79
2022/10/13 11:29:18;;;;;;;18.50;11.10;;;;;;;13.60;75.06;101991.92;107203;1272;58369;-81
2022/10/13 11:31:53;;;;;;;16.30;10.60;;;;;;;13.68;74.92;101989.14;107196;1274;58124;-81
2022/10/13 11:34:30;;;;;;;12.90;9.90;;;;;;;13.62;75.25;101988.10;107192;1273;62989;-79
2022/10/13 11:37:01;;;;;;;14.20;10.10;;;;;;;13.73;75.29;101984.22;107267;1271;62079;-80
2022/10/13 11:39:36;;;;;;;15.20;9.90;;;;;;;13.73;75.43;101982.64;107119;1280;59225;-78